createdAt,value
2022-11-04T00:01:10.475Z,9.10
2022-11-04T00:03:37.481Z,9.10
2022-11-04T00:06:04.551Z,9.10
2022-11-04T00:08:31.651Z,9.10
2022-11-04T00:11:18.356Z,9.00
2022-11-04T00:13:46.164Z,9.10
2022-11-04T00:16:32.940Z,9.00
2022-11-04T00:19:01.717Z,9.00
2022-11-04T00:21:48.073Z,8.90
2022-11-04T00:24:50.260Z,8.90
2022-11-04T00:27:38.078Z,8.90
2022-11-04T00:30:08.500Z,8.90
2022-11-04T00:32:54.867Z,8.90
2022-11-04T00:35:22.389Z,8.90
2022-11-04T00:37:49.402Z,8.90
2022-11-04T00:40:17.484Z,8.90
2022-11-04T00:42:46.321Z,8.90
2022-11-04T00:45:13.657Z,8.90
2022-11-04T00:47:40.650Z,8.90
2022-11-04T00:50:08.124Z,8.90
2022-11-04T00:52:35.229Z,8.90
2022-11-04T00:55:02.385Z,8.90
2022-11-04T00:57:30.811Z,8.90
2022-11-04T00:59:57.892Z,8.90
2022-11-04T01:02:26.357Z,8.80
2022-11-04T01:04:53.501Z,8.90
2022-11-04T01:07:20.613Z,8.90
2022-11-04T01:09:49.536Z,8.80
2022-11-04T01:12:17.184Z,8.80
2022-11-04T01:14:44.218Z,8.80
2022-11-04T01:17:11.228Z,8.80
2022-11-04T01:19:38.252Z,8.80
2022-11-04T01:22:05.228Z,8.70
2022-11-04T01:24:32.222Z,8.70
2022-11-04T01:26:59.289Z,8.60
2022-11-04T01:29:26.311Z,8.60
2022-11-04T01:31:53.281Z,8.50
2022-11-04T01:34:20.354Z,8.50
2022-11-04T01:36:47.457Z,8.50
2022-11-04T01:39:14.518Z,8.50
2022-11-04T01:41:41.759Z,8.50
2022-11-04T01:44:42.930Z,8.40
2022-11-04T01:47:21.861Z,8.40
2022-11-04T01:49:54.184Z,8.40
2022-11-04T01:52:27.086Z,8.30
2022-11-04T01:54:57.638Z,8.30
2022-11-04T01:57:34.714Z,8.30
2022-11-04T02:00:05.475Z,8.30
2022-11-04T02:02:33.058Z,8.30
2022-11-04T02:05:00.503Z,8.20
2022-11-04T02:07:28.876Z,8.20
2022-11-04T02:09:56.219Z,8.10
2022-11-04T02:12:49.655Z,8.10
2022-11-04T02:15:46.043Z,8.10
2022-11-04T02:18:36.629Z,8.10
2022-11-04T02:21:37.007Z,8.00
2022-11-04T02:24:28.692Z,8.00
2022-11-04T02:27:04.720Z,7.90
2022-11-04T02:29:57.679Z,7.90
2022-11-04T02:32:48.349Z,7.80
2022-11-04T02:35:18.224Z,7.70
2022-11-04T02:37:50.839Z,7.70
2022-11-04T02:40:29.890Z,7.70
2022-11-04T02:42:59.893Z,7.70
2022-11-04T02:45:47.459Z,7.70
2022-11-04T02:48:14.439Z,7.70
2022-11-04T02:50:53.015Z,7.60
2022-11-04T02:53:33.956Z,7.60
2022-11-04T02:56:03.656Z,7.60
2022-11-04T02:58:41.980Z,7.60
2022-11-04T03:01:12.038Z,7.60
2022-11-04T03:03:47.376Z,7.60
2022-11-04T03:06:17.300Z,7.60
2022-11-04T03:08:48.858Z,7.60
2022-11-04T03:11:18.387Z,7.60
2022-11-04T03:14:00.407Z,7.60
2022-11-04T03:16:45.493Z,7.50
2022-11-04T03:19:19.698Z,7.50
2022-11-04T03:21:53.415Z,7.50
2022-11-04T03:24:20.714Z,7.50
2022-11-04T03:26:57.790Z,7.50
2022-11-04T03:29:38.138Z,7.60
2022-11-04T03:32:32.836Z,7.60
2022-11-04T03:34:59.947Z,7.60
2022-11-04T03:37:27.003Z,7.60
2022-11-04T03:39:54.737Z,7.60
2022-11-04T03:42:23.357Z,7.60
2022-11-04T03:44:51.832Z,7.50
2022-11-04T03:47:23.674Z,7.50
2022-11-04T03:49:53.665Z,7.40
2022-11-04T03:52:21.241Z,7.40
2022-11-04T03:54:48.635Z,7.30
2022-11-04T03:57:42.763Z,7.30
2022-11-04T04:00:16.792Z,7.30
2022-11-04T04:03:13.684Z,7.30
2022-11-04T04:06:10.759Z,7.30
2022-11-04T04:08:43.484Z,7.20
2022-11-04T04:11:37.796Z,7.20
2022-11-04T04:14:34.020Z,7.10
2022-11-04T04:17:05.221Z,7.10
2022-11-04T04:19:33.648Z,7.00
2022-11-04T04:22:18.396Z,7.00
2022-11-04T04:25:08.095Z,7.00
2022-11-04T04:27:35.937Z,7.00
2022-11-04T04:30:05.258Z,6.90
2022-11-04T04:32:44.077Z,6.90
2022-11-04T04:35:30.356Z,6.80
2022-11-04T04:38:20.257Z,6.80
2022-11-04T04:41:17.930Z,6.70
2022-11-04T04:44:03.967Z,6.70
2022-11-04T04:46:32.427Z,6.80
2022-11-04T04:49:09.758Z,6.80
2022-11-04T04:51:43.498Z,6.70
2022-11-04T04:54:11.139Z,6.70
2022-11-04T04:56:38.510Z,6.70
2022-11-04T04:59:06.288Z,6.70
2022-11-04T05:01:33.788Z,6.70
2022-11-04T05:04:00.988Z,6.70
2022-11-04T05:06:28.147Z,6.60
2022-11-04T05:08:55.409Z,6.60
2022-11-04T05:11:26.066Z,6.60
2022-11-04T05:13:54.591Z,6.60
2022-11-04T05:16:22.380Z,6.60
2022-11-04T05:18:51.522Z,6.50
2022-11-04T05:21:19.446Z,6.50
2022-11-04T05:23:46.725Z,6.40
2022-11-04T05:26:16.352Z,6.40
2022-11-04T05:28:43.498Z,6.40
2022-11-04T05:31:10.862Z,6.40
2022-11-04T05:33:38.112Z,6.40
2022-11-04T05:36:08.717Z,6.40
2022-11-04T05:38:35.947Z,6.50
2022-11-04T05:41:03.693Z,6.50
2022-11-04T05:43:31.945Z,6.40
2022-11-04T05:46:00.315Z,6.40
2022-11-04T05:48:28.473Z,6.40
2022-11-04T05:50:56.138Z,6.30
2022-11-04T05:53:23.498Z,6.20
2022-11-04T05:55:50.917Z,6.10
2022-11-04T05:58:18.203Z,6.10
2022-11-04T06:00:45.461Z,6.00
2022-11-04T06:03:15.451Z,6.00
2022-11-04T06:05:43.808Z,6.00
2022-11-04T06:08:11.219Z,5.90
2022-11-04T06:10:38.723Z,6.00
2022-11-04T06:13:05.960Z,5.90
2022-11-04T06:15:33.146Z,6.00
2022-11-04T06:18:00.275Z,6.00
2022-11-04T06:20:27.563Z,6.00
2022-11-04T06:22:54.718Z,6.00
2022-11-04T06:25:21.990Z,6.10
2022-11-04T06:27:49.223Z,6.10
2022-11-04T06:30:16.411Z,6.10
2022-11-04T06:32:43.496Z,6.20
2022-11-04T06:35:10.744Z,6.20
2022-11-04T06:37:38.375Z,6.10
2022-11-04T06:40:06.227Z,6.10
2022-11-04T06:42:33.498Z,6.10
2022-11-04T06:45:00.711Z,6.10
2022-11-04T06:47:27.976Z,6.10
2022-11-04T06:49:55.130Z,6.10
2022-11-04T06:52:22.384Z,6.00
2022-11-04T06:54:49.649Z,6.10
2022-11-04T06:57:16.945Z,6.10
2022-11-04T06:59:44.246Z,6.10
2022-11-04T07:02:13.317Z,6.20
2022-11-04T07:04:40.534Z,6.20
2022-11-04T07:07:08.828Z,6.30
2022-11-04T07:09:36.047Z,6.30
2022-11-04T07:12:03.410Z,6.40
2022-11-04T07:14:31.497Z,6.50
2022-11-04T07:16:58.600Z,6.50
2022-11-04T07:19:25.800Z,6.50
2022-11-04T07:21:52.978Z,6.60
2022-11-04T07:24:20.400Z,6.60
2022-11-04T07:26:47.727Z,6.60
2022-11-04T07:29:14.975Z,6.60
2022-11-04T07:31:43.913Z,6.70
2022-11-04T07:34:11.185Z,6.80
2022-11-04T07:36:38.439Z,6.80
2022-11-04T07:39:06.960Z,6.80
2022-11-04T07:41:34.288Z,6.90
2022-11-04T07:44:05.480Z,7.00
2022-11-04T07:46:33.766Z,7.00
2022-11-04T07:49:01.211Z,7.00
2022-11-04T07:51:28.308Z,7.10
2022-11-04T07:53:56.047Z,7.10
2022-11-04T07:56:24.355Z,7.10
2022-11-04T07:58:51.796Z,7.10
2022-11-04T08:01:21.456Z,7.20
2022-11-04T08:03:50.173Z,7.20
2022-11-04T08:06:19.474Z,7.30
2022-11-04T08:08:48.464Z,7.30
2022-11-04T08:11:18.780Z,7.40
2022-11-04T08:13:47.109Z,7.40
2022-11-04T08:16:16.883Z,7.50
2022-11-04T08:18:45.456Z,7.50
2022-11-04T08:21:13.356Z,7.60
2022-11-04T08:23:41.234Z,7.70
2022-11-04T08:26:14.265Z,7.80
2022-11-04T08:28:42.079Z,7.90
2022-11-04T08:31:14.114Z,7.90
2022-11-04T08:33:42.024Z,8.00
2022-11-04T08:36:13.340Z,8.00
2022-11-04T08:38:40.735Z,8.10
2022-11-04T08:41:10.425Z,8.10
2022-11-04T08:43:38.263Z,8.10
2022-11-04T08:46:08.325Z,8.10
2022-11-04T08:48:36.960Z,8.10
2022-11-04T08:51:05.302Z,8.10
2022-11-04T08:53:32.607Z,8.20
2022-11-04T08:55:59.867Z,8.20
2022-11-04T08:58:27.309Z,8.30
2022-11-04T09:00:54.423Z,8.40
2022-11-04T09:03:21.704Z,8.40
2022-11-04T09:05:49.550Z,8.40
2022-11-04T09:08:18.213Z,8.50
2022-11-04T09:10:47.145Z,8.60
2022-11-04T09:13:16.066Z,8.70
2022-11-04T09:15:45.283Z,8.80
2022-11-04T09:18:13.232Z,8.80
2022-11-04T09:20:41.843Z,8.90
2022-11-04T09:23:10.016Z,9.00
2022-11-04T09:25:38.145Z,9.10
2022-11-04T09:28:05.684Z,9.20
2022-11-04T09:30:33.671Z,9.30
2022-11-04T09:33:00.863Z,9.40
2022-11-04T09:35:28.147Z,9.60
2022-11-04T09:37:55.502Z,9.60
2022-11-04T09:40:25.160Z,9.70
2022-11-04T09:43:07.676Z,9.80
2022-11-04T09:45:39.513Z,9.90
2022-11-04T09:48:23.145Z,9.90
2022-11-04T09:50:58.223Z,9.90
2022-11-04T09:53:41.122Z,9.80
2022-11-04T09:56:21.713Z,9.90
2022-11-04T09:58:50.080Z,9.90
2022-11-04T10:01:29.521Z,9.80
2022-11-04T10:04:51.336Z,9.90
2022-11-04T10:07:28.551Z,9.90
2022-11-04T10:10:46.278Z,10.10
2022-11-04T10:13:44.133Z,10.30
2022-11-04T10:16:47.332Z,10.40
2022-11-04T10:19:47.083Z,10.50
2022-11-04T10:22:34.869Z,10.60
2022-11-04T10:25:15.125Z,10.80
2022-11-04T10:27:46.195Z,11.00
2022-11-04T10:30:16.078Z,11.20
2022-11-04T10:32:58.688Z,11.20
2022-11-04T10:35:53.490Z,11.20
2022-11-04T10:38:41.384Z,11.20
2022-11-04T10:41:35.778Z,11.30
2022-11-04T10:44:41.563Z,11.30
2022-11-04T10:47:39.941Z,11.40
2022-11-04T10:50:28.348Z,11.60
2022-11-04T10:53:16.557Z,11.80
2022-11-04T10:56:07.016Z,11.80
2022-11-04T10:58:43.177Z,12.00
2022-11-04T11:01:31.787Z,11.80
2022-11-04T11:03:59.935Z,11.70
2022-11-04T11:06:32.430Z,11.90
2022-11-04T11:09:30.157Z,11.90
2022-11-04T11:11:57.666Z,11.80
2022-11-04T11:14:33.255Z,11.80
2022-11-04T11:17:15.403Z,11.60
2022-11-04T11:19:50.752Z,11.60
2022-11-04T11:22:39.803Z,11.80
2022-11-04T11:25:24.806Z,11.90
2022-11-04T11:27:58.625Z,12.00
2022-11-04T11:30:44.131Z,12.10
2022-11-04T11:33:31.671Z,12.00
2022-11-04T11:36:01.463Z,12.20
2022-11-04T11:38:31.053Z,12.30
2022-11-04T11:41:24.803Z,12.30
2022-11-04T11:43:54.654Z,12.10
2022-11-04T11:46:28.387Z,12.10
2022-11-04T11:49:03.148Z,12.10
2022-11-04T11:51:37.725Z,12.00
2022-11-04T11:54:14.346Z,11.90
2022-11-04T12:02:56.000Z,11.70
2022-11-04T12:12:14.441Z,11.70
2022-11-04T12:15:01.061Z,11.80
2022-11-04T12:17:43.188Z,11.90
2022-11-04T12:20:22.170Z,12.00
2022-11-04T12:23:18.707Z,11.90
2022-11-04T12:26:14.907Z,11.90
2022-11-04T12:28:44.836Z,11.80
2022-11-04T12:31:30.557Z,11.70
2022-11-04T12:34:20.988Z,11.60
2022-11-04T12:37:01.004Z,11.50
2022-11-04T12:39:56.228Z,11.50
2022-11-04T12:42:33.309Z,11.40
2022-11-04T12:45:19.012Z,11.50
2022-11-04T12:47:47.950Z,11.50
2022-11-04T12:50:49.115Z,11.50
2022-11-04T12:53:46.781Z,11.60
2022-11-04T12:56:22.957Z,11.60
2022-11-04T12:59:14.628Z,11.70
2022-11-04T13:02:10.776Z,11.70
2022-11-04T13:04:47.349Z,11.90
2022-11-04T13:07:23.335Z,11.90
2022-11-04T13:09:56.114Z,11.80
2022-11-04T13:12:32.243Z,11.80
2022-11-04T13:15:02.697Z,11.90
2022-11-04T13:17:40.386Z,12.20
2022-11-04T13:20:07.815Z,12.20
2022-11-04T13:22:37.763Z,12.20
2022-11-04T13:25:08.076Z,12.10
2022-11-04T13:27:40.780Z,12.10
2022-11-04T13:30:23.617Z,12.10
2022-11-04T13:32:58.121Z,12.10
2022-11-04T13:35:47.252Z,12.00
2022-11-04T13:38:23.854Z,11.80
2022-11-04T13:41:24.572Z,11.80
2022-11-04T13:44:01.860Z,11.70
2022-11-04T13:46:33.297Z,11.60
2022-11-04T13:49:12.482Z,11.60
2022-11-04T13:51:45.582Z,11.50
2022-11-04T13:54:53.245Z,11.40
2022-11-04T13:57:23.864Z,11.40
2022-11-04T14:00:08.789Z,11.40
2022-11-04T14:02:44.677Z,11.30
2022-11-04T14:05:41.257Z,11.20
2022-11-04T14:08:12.423Z,11.00
2022-11-04T14:10:50.305Z,10.80
2022-11-04T14:13:37.910Z,10.70
2022-11-04T14:16:05.085Z,10.60
2022-11-04T14:18:41.069Z,10.50
2022-11-04T14:21:19.465Z,10.40
2022-11-04T14:23:55.401Z,10.40
2022-11-04T14:26:53.047Z,10.40
2022-11-04T14:29:26.345Z,10.40
2022-11-04T14:31:59.869Z,10.30
2022-11-04T14:34:34.772Z,10.30
2022-11-04T14:37:19.537Z,10.20
2022-11-04T14:39:57.143Z,10.20
2022-11-04T14:42:54.825Z,10.20
2022-11-04T14:45:29.029Z,10.10
2022-11-04T14:47:57.716Z,10.00
2022-11-04T14:50:28.362Z,10.00
2022-11-04T14:52:57.057Z,10.00
2022-11-04T14:55:28.423Z,10.00
2022-11-04T14:57:58.505Z,9.90
2022-11-04T15:00:39.211Z,10.00
2022-11-04T15:04:04.703Z,9.90
2022-11-04T15:06:11.284Z,9.90
2022-11-04T15:08:41.973Z,9.90
2022-11-04T15:11:17.666Z,9.90
2022-11-04T15:13:49.347Z,9.80
2022-11-04T15:16:26.053Z,9.80
2022-11-04T15:18:55.721Z,9.80
2022-11-04T15:21:24.258Z,9.80
2022-11-04T15:23:53.662Z,9.70
2022-11-04T15:26:30.347Z,9.70
2022-11-04T15:29:05.019Z,9.60
2022-11-04T15:31:32.527Z,9.60
2022-11-04T15:34:02.702Z,9.60
2022-11-04T15:36:41.805Z,9.60
2022-11-04T15:39:19.501Z,9.50
2022-11-04T15:42:06.826Z,9.50
2022-11-04T15:44:37.074Z,9.50
2022-11-04T15:47:22.913Z,9.40
2022-11-04T15:49:52.871Z,9.40
2022-11-04T15:52:28.212Z,9.40
2022-11-04T15:55:00.655Z,9.30
2022-11-04T15:57:41.116Z,9.40
2022-11-04T16:00:17.816Z,9.30
2022-11-04T16:03:00.566Z,9.30
2022-11-04T16:05:33.427Z,9.30
2022-11-04T16:08:23.333Z,9.30
2022-11-04T16:10:51.446Z,9.30
2022-11-04T16:13:23.591Z,9.30
2022-11-04T16:16:09.438Z,9.30
2022-11-04T16:18:45.624Z,9.30
2022-11-04T16:21:33.804Z,9.20
2022-11-04T16:24:06.058Z,9.20
2022-11-04T16:26:42.146Z,9.20
2022-11-04T16:29:19.130Z,9.20
2022-11-04T16:31:46.846Z,9.20
2022-11-04T16:34:14.503Z,9.30
2022-11-04T16:36:41.771Z,9.20
2022-11-04T16:39:09.073Z,9.30
2022-11-04T16:41:41.410Z,9.30
2022-11-04T16:44:19.752Z,9.20
2022-11-04T16:46:47.078Z,9.30
2022-11-04T16:49:16.978Z,9.30
2022-11-04T16:51:44.984Z,9.30
2022-11-04T16:54:12.290Z,9.20
2022-11-04T16:56:39.855Z,9.20
2022-11-04T16:59:07.051Z,9.20
2022-11-04T17:01:34.207Z,9.20
2022-11-04T17:04:02.446Z,9.10
2022-11-04T17:06:30.353Z,9.10
2022-11-04T17:08:57.426Z,9.00
2022-11-04T17:11:24.606Z,8.90
2022-11-04T17:13:51.612Z,8.80
2022-11-04T17:16:18.851Z,8.70
2022-11-04T17:18:45.932Z,8.70
2022-11-04T17:21:17.265Z,8.60
2022-11-04T17:23:44.809Z,8.60
2022-11-04T17:26:14.985Z,8.60
2022-11-04T17:28:42.836Z,8.60
2022-11-04T17:31:16.497Z,8.60
2022-11-04T17:33:43.581Z,8.60
2022-11-04T17:36:19.583Z,8.60
2022-11-04T17:38:47.373Z,8.70
2022-11-04T17:41:33.341Z,8.70
2022-11-04T17:44:00.365Z,8.70
2022-11-04T17:46:35.230Z,8.70
2022-11-04T17:49:13.464Z,8.70
2022-11-04T17:51:43.380Z,8.70
2022-11-04T17:54:10.821Z,8.70
2022-11-04T17:56:38.488Z,8.70
2022-11-04T17:59:06.444Z,8.70
2022-11-04T18:01:35.567Z,8.80
2022-11-04T18:04:03.713Z,8.70
2022-11-04T18:06:32.600Z,8.70
2022-11-04T18:09:00.148Z,8.70
2022-11-04T18:11:47.477Z,8.70
2022-11-04T18:14:17.210Z,8.70
2022-11-04T18:16:47.277Z,8.70
2022-11-04T18:19:16.079Z,8.70
2022-11-04T18:21:43.161Z,8.70
2022-11-04T18:24:11.532Z,8.60
2022-11-04T18:26:39.031Z,8.60
2022-11-04T18:29:06.633Z,8.50
2022-11-04T18:31:38.897Z,8.50
2022-11-04T18:34:09.507Z,8.40
2022-11-04T18:36:39.019Z,8.40
2022-11-04T18:39:08.732Z,8.40
2022-11-04T18:41:39.382Z,8.30
2022-11-04T18:44:08.064Z,8.30
2022-11-04T18:46:35.379Z,8.30
2022-11-04T18:49:02.526Z,8.20
2022-11-04T18:51:29.670Z,8.20
2022-11-04T18:53:57.191Z,8.20
2022-11-04T18:56:24.498Z,8.20
2022-11-04T18:58:51.729Z,8.20
2022-11-04T19:01:34.608Z,8.20
2022-11-04T19:04:01.907Z,8.30
2022-11-04T19:06:34.642Z,8.30
2022-11-04T19:09:32.110Z,8.40
2022-11-04T19:12:14.281Z,8.40
2022-11-04T19:14:41.362Z,8.50
2022-11-04T19:17:12.890Z,8.50
2022-11-04T19:19:41.272Z,8.50
2022-11-04T19:22:09.114Z,8.50
2022-11-04T19:24:36.414Z,8.50
2022-11-04T19:27:03.757Z,8.50
2022-11-04T19:29:32.528Z,8.50
2022-11-04T19:32:00.143Z,8.50
2022-11-04T19:34:27.233Z,8.50
2022-11-04T19:36:57.253Z,8.40
2022-11-04T19:39:24.378Z,8.40
2022-11-04T19:42:10.096Z,8.40
2022-11-04T19:44:37.147Z,8.40
2022-11-04T19:47:04.192Z,8.30
2022-11-04T19:49:31.809Z,8.40
2022-11-04T19:51:59.436Z,8.30
2022-11-04T19:54:27.806Z,8.30
2022-11-04T19:56:54.794Z,8.20
2022-11-04T19:59:24.635Z,8.20
2022-11-04T20:01:52.039Z,8.10
2022-11-04T20:04:19.441Z,8.10
2022-11-04T20:06:47.080Z,8.00
2022-11-04T20:09:14.263Z,8.00
2022-11-04T20:11:59.997Z,8.00
2022-11-04T20:14:28.712Z,8.00
2022-11-04T20:16:55.921Z,8.00
2022-11-04T20:19:23.531Z,7.90
2022-11-04T20:21:51.484Z,7.90
2022-11-04T20:24:18.727Z,8.00
2022-11-04T20:26:52.080Z,8.00
2022-11-04T20:29:20.401Z,8.00
2022-11-04T20:31:47.498Z,8.00
2022-11-04T20:34:15.492Z,8.00
2022-11-04T20:36:42.983Z,8.10
2022-11-04T20:39:15.902Z,8.10
2022-11-04T20:41:45.111Z,8.10
2022-11-04T20:44:13.921Z,8.10
2022-11-04T20:46:45.976Z,8.10
2022-11-04T20:49:13.238Z,8.10
2022-11-04T20:51:50.061Z,8.10
2022-11-04T20:54:19.553Z,8.10
2022-11-04T20:56:46.670Z,8.10
2022-11-04T20:59:14.172Z,8.10
2022-11-04T21:01:43.695Z,8.10
2022-11-04T21:04:15.118Z,8.10
2022-11-04T21:06:42.935Z,8.10
2022-11-04T21:09:13.092Z,8.10
2022-11-04T21:11:40.913Z,8.10
2022-11-04T21:14:11.169Z,8.10
2022-11-04T21:16:38.222Z,8.20
2022-11-04T21:19:06.240Z,8.20
2022-11-04T21:21:33.581Z,8.20
2022-11-04T21:24:02.817Z,8.20
2022-11-04T21:26:32.342Z,8.20
2022-11-04T21:29:02.856Z,8.10
2022-11-04T21:31:32.909Z,8.10
2022-11-04T21:34:00.240Z,8.10
2022-11-04T21:36:27.667Z,8.10
2022-11-04T21:38:54.957Z,8.10
2022-11-04T21:41:26.445Z,8.10
2022-11-04T21:43:58.106Z,8.10
2022-11-04T21:46:26.532Z,8.10
2022-11-04T21:48:53.534Z,8.10
2022-11-04T21:51:26.552Z,8.10
2022-11-04T21:53:53.633Z,8.10
2022-11-04T21:56:23.411Z,8.10
2022-11-04T21:58:53.023Z,8.10
2022-11-04T22:01:24.307Z,8.10
2022-11-04T22:03:53.971Z,8.10
2022-11-04T22:06:21.592Z,8.10
2022-11-04T22:08:53.959Z,8.20
2022-11-04T22:11:29.625Z,8.20
2022-11-04T22:14:01.377Z,8.20
2022-11-04T22:16:30.971Z,8.20
2022-11-04T22:19:00.764Z,8.20
2022-11-04T22:21:29.610Z,8.20
2022-11-04T22:23:57.697Z,8.20
2022-11-04T22:26:27.604Z,8.20
2022-11-04T22:28:55.933Z,8.20
2022-11-04T22:31:34.815Z,8.20
2022-11-04T22:34:02.607Z,8.20
2022-11-04T22:36:32.188Z,8.20
2022-11-04T22:39:00.045Z,8.30
2022-11-04T22:41:30.195Z,8.30
2022-11-04T22:43:57.813Z,8.30
2022-11-04T22:46:30.731Z,8.30
2022-11-04T22:48:59.781Z,8.30
2022-11-04T22:51:27.174Z,8.20
2022-11-04T22:53:58.962Z,8.10
2022-11-04T22:56:27.564Z,7.90
2022-11-04T22:58:55.168Z,7.80
2022-11-04T23:01:22.634Z,7.50
2022-11-04T23:03:52.291Z,7.40
2022-11-04T23:06:19.898Z,7.30
2022-11-04T23:08:47.148Z,7.30
2022-11-04T23:11:39.789Z,7.30
2022-11-04T23:14:26.332Z,7.30
2022-11-04T23:17:12.307Z,7.30
2022-11-04T23:19:39.835Z,7.30
2022-11-04T23:22:26.479Z,7.30
2022-11-04T23:25:06.983Z,7.40
2022-11-04T23:27:53.710Z,7.40
2022-11-04T23:30:21.823Z,7.50
2022-11-04T23:32:55.694Z,7.50
2022-11-04T23:35:44.242Z,7.60
2022-11-04T23:38:11.387Z,7.60
2022-11-04T23:40:39.389Z,7.70
2022-11-04T23:43:06.887Z,7.70
2022-11-04T23:45:53.236Z,7.70
2022-11-04T23:48:38.912Z,7.70
2022-11-04T23:51:24.633Z,7.80
2022-11-04T23:54:10.188Z,7.80
2022-11-04T23:57:12.677Z,7.70
2022-11-04T23:59:58.004Z,7.70
